createdAt,value
2017-05-16T00:00:08.419Z,62.49
2017-05-16T00:01:17.375Z,62.39
2017-05-16T00:02:26.828Z,62.39
2017-05-16T00:03:36.467Z,62.39
2017-05-16T00:04:45.987Z,62.68
2017-05-16T00:05:55.270Z,62.39
2017-05-16T00:07:04.561Z,62.68
2017-05-16T00:08:14.794Z,62.39
2017-05-16T00:09:24.607Z,62.77
2017-05-16T00:10:35.004Z,62.68
2017-05-16T00:11:44.345Z,63.06
2017-05-16T00:12:55.143Z,63.26
2017-05-16T00:14:05.767Z,63.73
2017-05-16T00:15:15.609Z,63.45
2017-05-16T00:16:25.404Z,63.54
2017-05-16T00:17:34.798Z,63.83
2017-05-16T00:18:43.880Z,63.8
2017-05-16T00:19:54.379Z,63.51
2017-05-16T00:21:04.661Z,63.7
2017-05-16T00:22:13.905Z,63.6
2017-05-16T00:23:23.033Z,63.8
2017-05-16T00:24:33.342Z,63.89
2017-05-16T00:25:43.091Z,63.89
2017-05-16T00:26:52.573Z,64.09
2017-05-16T00:28:01.911Z,63.99
2017-05-16T00:29:11.006Z,63.8
2017-05-16T00:30:20.504Z,63.89
2017-05-16T00:31:30.271Z,63.89
2017-05-16T00:32:39.957Z,63.99
2017-05-16T00:33:49.154Z,64.09
2017-05-16T00:34:58.724Z,64.28
2017-05-16T00:36:08.701Z,64.47
2017-05-16T00:37:18.242Z,64.47
2017-05-16T00:38:27.681Z,64.37
2017-05-16T00:39:36.766Z,64.76
2017-05-16T00:40:46.152Z,64.18
2017-05-16T00:41:55.374Z,64.18
2017-05-16T00:43:06.064Z,64.18
2017-05-16T00:44:15.266Z,64.37
2017-05-16T00:45:24.514Z,64.76
2017-05-16T00:46:34.843Z,64.37
2017-05-16T00:47:44.386Z,64.66
2017-05-16T00:48:53.646Z,64.66
2017-05-16T00:50:02.606Z,64.76
2017-05-16T00:51:11.649Z,64.76
2017-05-16T00:52:20.613Z,64.47
2017-05-16T00:53:30.480Z,64.56
2017-05-16T00:54:47.145Z,64.56
2017-05-16T00:55:59.008Z,64.56
2017-05-16T00:57:11.445Z,64.47
2017-05-16T00:58:22.286Z,64.76
2017-05-16T00:59:32.502Z,64.47
2017-05-16T01:00:41.812Z,64.85
2017-05-16T01:01:52.135Z,65.14
2017-05-16T01:03:01.792Z,65.23
2017-05-16T01:04:11.712Z,64.66
2017-05-16T01:05:22.472Z,65.05
2017-05-16T01:06:33.617Z,64.56
2017-05-16T01:07:44.137Z,64.53
2017-05-16T01:08:54.812Z,65.23
2017-05-16T01:10:05.863Z,65.62
2017-05-16T01:11:16.008Z,64.92
2017-05-16T01:12:25.455Z,65.68
2017-05-16T01:13:34.419Z,65.52
2017-05-16T01:14:43.815Z,65.88
2017-05-16T01:15:52.779Z,66.19
2017-05-16T01:17:02.067Z,65.88
2017-05-16T01:18:26.941Z,66.16
2017-05-16T01:19:36.538Z,66.16
2017-05-16T01:20:45.951Z,66.45
2017-05-16T01:21:55.924Z,66.35
2017-05-16T01:23:06.662Z,66.16
2017-05-16T01:24:16.971Z,66.35
2017-05-16T01:25:27.434Z,66.74
2017-05-16T01:26:36.562Z,66.64
2017-05-16T01:27:45.848Z,66.83
2017-05-16T01:28:55.514Z,66.93
2017-05-16T01:30:05.483Z,67.02
2017-05-16T01:31:14.768Z,67.41
2017-05-16T01:32:24.472Z,66.93
2017-05-16T01:33:34.365Z,66.93
2017-05-16T01:34:46.113Z,66.93
2017-05-16T01:35:57.060Z,67.02
2017-05-16T01:37:07.794Z,67.21
2017-05-16T01:38:18.223Z,67.11
2017-05-16T01:39:29.585Z,66.93
2017-05-16T01:40:39.510Z,67.11
2017-05-16T01:41:48.540Z,67.21
2017-05-16T01:42:57.780Z,66.93
2017-05-16T01:44:07.048Z,66.93
2017-05-16T01:45:17.300Z,67.21
2017-05-16T01:46:27.011Z,66.93
2017-05-16T01:47:37.136Z,67.31
2017-05-16T01:48:47.291Z,67.21
2017-05-16T01:49:57.220Z,67.41
2017-05-16T01:51:06.178Z,67.79
2017-05-16T01:52:15.396Z,67.79
2017-05-16T01:53:25.558Z,67.69
2017-05-16T01:54:34.520Z,68.17
2017-05-16T01:55:43.484Z,68.07
2017-05-16T01:56:52.644Z,68.55
2017-05-16T01:58:01.866Z,68.55
2017-05-16T01:59:10.826Z,68.74
2017-05-16T02:00:19.790Z,68.65
2017-05-16T02:01:28.744Z,68.74
2017-05-16T02:02:38.284Z,68.55
2017-05-16T02:03:47.494Z,68.74
2017-05-16T02:04:56.461Z,68.65
2017-05-16T02:06:05.424Z,68.65
2017-05-16T02:07:14.384Z,68.74
2017-05-16T02:08:23.429Z,68.17
2017-05-16T02:09:32.636Z,68.27
2017-05-16T02:10:41.591Z,67.98
2017-05-16T02:11:50.965Z,68.07
2017-05-16T02:12:59.928Z,68.07
2017-05-16T02:14:08.889Z,68.27
2017-05-16T02:15:18.104Z,68.27
2017-05-16T02:16:27.062Z,67.98
2017-05-16T02:17:36.031Z,68.46
2017-05-16T02:18:45.000Z,68.46
2017-05-16T02:19:53.961Z,68.36
2017-05-16T02:21:03.176Z,67.79
2017-05-16T02:22:12.227Z,67.88
2017-05-16T02:23:21.277Z,67.88
2017-05-16T02:24:30.327Z,67.98
2017-05-16T02:25:39.285Z,67.98
2017-05-16T02:26:49.070Z,68.07
2017-05-16T02:27:58.030Z,68.84
2017-05-16T02:29:07.002Z,68.46
2017-05-16T02:30:16.290Z,68.46
2017-05-16T02:31:25.306Z,68.17
2017-05-16T02:32:34.515Z,68.84
2017-05-16T02:33:43.562Z,68.74
2017-05-16T02:34:52.522Z,68.65
2017-05-16T02:36:01.585Z,68.65
2017-05-16T02:37:10.547Z,68.46
2017-05-16T02:38:20.959Z,68.65
2017-05-16T02:39:29.920Z,68.65
2017-05-16T02:40:39.209Z,68.55
2017-05-16T02:41:48.174Z,68.55
2017-05-16T02:42:57.142Z,68.36
2017-05-16T02:44:06.363Z,68.27
2017-05-16T02:45:15.320Z,68.46
2017-05-16T02:46:24.374Z,68.46
2017-05-16T02:47:33.665Z,68.46
2017-05-16T02:48:42.855Z,68.55
2017-05-16T02:49:52.065Z,68.65
2017-05-16T02:51:01.032Z,68.46
2017-05-16T02:52:10.075Z,68.46
2017-05-16T02:53:19.039Z,68.74
2017-05-16T02:54:28.005Z,68.74
2017-05-16T02:55:37.212Z,68.55
2017-05-16T02:56:46.177Z,68.74
2017-05-16T02:57:55.142Z,68.46
2017-05-16T02:59:04.188Z,68.55
2017-05-16T03:00:13.146Z,68.65
2017-05-16T03:01:22.357Z,68.84
2017-05-16T03:02:32.824Z,68.84
2017-05-16T03:03:41.788Z,68.55
2017-05-16T03:04:50.950Z,68.84
2017-05-16T03:06:00.240Z,68.94
2017-05-16T03:07:09.453Z,69.03
2017-05-16T03:08:18.414Z,68.55
2017-05-16T03:09:27.663Z,68.84
2017-05-16T03:10:36.629Z,68.55
2017-05-16T03:11:45.584Z,68.55
2017-05-16T03:12:54.845Z,68.46
2017-05-16T03:14:03.808Z,68.36
2017-05-16T03:15:12.766Z,68.46
2017-05-16T03:16:21.724Z,68.46
2017-05-16T03:17:30.771Z,68.46
2017-05-16T03:18:39.987Z,68.46
2017-05-16T03:19:48.949Z,68.74
2017-05-16T03:20:57.909Z,69.13
2017-05-16T03:22:06.876Z,69.42
2017-05-16T03:23:15.922Z,68.74
2017-05-16T03:24:25.134Z,69.03
2017-05-16T03:25:34.096Z,68.84
2017-05-16T03:26:43.060Z,68.84
2017-05-16T03:27:52.033Z,68.94
2017-05-16T03:29:00.999Z,68.94
2017-05-16T03:30:10.352Z,68.84
2017-05-16T03:31:19.311Z,68.94
2017-05-16T03:32:28.273Z,68.94
2017-05-16T03:33:37.241Z,68.94
2017-05-16T03:34:46.202Z,68.74
2017-05-16T03:35:55.466Z,69.13
2017-05-16T03:37:04.424Z,68.84
2017-05-16T03:38:13.385Z,68.74
2017-05-16T03:39:22.360Z,68.84
2017-05-16T03:40:31.322Z,68.84
2017-05-16T03:41:40.595Z,68.94
2017-05-16T03:42:49.551Z,68.74
2017-05-16T03:43:58.517Z,68.84
2017-05-16T03:45:07.472Z,68.65
2017-05-16T03:46:17.063Z,68.65
2017-05-16T03:47:40.887Z,68.65
2017-05-16T03:48:49.854Z,68.84
2017-05-16T03:49:58.820Z,68.84
2017-05-16T03:51:07.780Z,69.13
2017-05-16T03:52:16.747Z,68.84
2017-05-16T03:53:26.020Z,69.6
2017-05-16T03:54:34.992Z,69.13
2017-05-16T03:55:43.955Z,69.03
2017-05-16T03:56:53.005Z,69.51
2017-05-16T03:58:01.967Z,69.32
2017-05-16T03:59:11.230Z,69.32
2017-05-16T04:00:20.190Z,69.13
2017-05-16T04:01:29.327Z,69.13
2017-05-16T04:02:38.292Z,69.23
2017-05-16T04:03:47.345Z,69.23
2017-05-16T04:04:56.612Z,69.13
2017-05-16T04:06:05.571Z,69.51
2017-05-16T04:07:14.526Z,69.6
2017-05-16T04:08:23.498Z,69.7
2017-05-16T04:09:32.660Z,69.89
2017-05-16T04:10:42.041Z,69.7
2017-05-16T04:11:51.323Z,69.6
2017-05-16T04:13:00.282Z,69.7
2017-05-16T04:14:09.242Z,69.7
2017-05-16T04:15:18.206Z,69.89
2017-05-16T04:16:27.462Z,70.28
2017-05-16T04:17:36.427Z,70.18
2017-05-16T04:18:46.594Z,69.99
2017-05-16T04:19:55.556Z,70.09
2017-05-16T04:21:04.516Z,70.18
2017-05-16T04:22:13.913Z,70.18
2017-05-16T04:23:22.875Z,70.28
2017-05-16T04:24:31.836Z,70.09
2017-05-16T04:25:40.802Z,70.37
2017-05-16T04:26:49.764Z,69.99
2017-05-16T04:27:58.976Z,70.09
2017-05-16T04:29:07.956Z,70.09
2017-05-16T04:30:16.919Z,70.37
2017-05-16T04:31:26.206Z,70.09
2017-05-16T04:32:35.261Z,70.09
2017-05-16T04:33:44.537Z,69.89
2017-05-16T04:34:53.911Z,70.76
2017-05-16T04:36:02.871Z,70.28
2017-05-16T04:37:11.832Z,70.09
2017-05-16T04:38:20.804Z,70.09
2017-05-16T04:39:30.066Z,70.28
2017-05-16T04:40:39.019Z,70.28
2017-05-16T04:41:47.979Z,70.28
2017-05-16T04:42:56.947Z,70.09
2017-05-16T04:44:06.001Z,70.56
2017-05-16T04:45:15.312Z,70.18
2017-05-16T04:46:24.497Z,70.47
2017-05-16T04:47:33.460Z,70.56
2017-05-16T04:48:42.424Z,69.99
2017-05-16T04:49:51.392Z,70.18
2017-05-16T04:51:00.740Z,69.99
2017-05-16T04:52:09.701Z,70.03
2017-05-16T04:53:18.661Z,70.12
2017-05-16T04:54:27.945Z,70.18
2017-05-16T04:55:36.994Z,70.09
2017-05-16T04:56:46.302Z,70.6
2017-05-16T04:57:55.261Z,70.7
2017-05-16T04:59:04.225Z,70.5
2017-05-16T05:00:13.187Z,70.7
2017-05-16T05:01:22.154Z,70.31
2017-05-16T05:02:31.460Z,70.12
2017-05-16T05:03:40.608Z,70.12
2017-05-16T05:04:49.569Z,70.03
2017-05-16T05:05:58.528Z,70.21
2017-05-16T05:07:07.489Z,69.64
2017-05-16T05:08:18.001Z,69.83
2017-05-16T05:09:27.165Z,69.83
2017-05-16T05:10:36.136Z,69.64
2017-05-16T05:11:45.100Z,69.74
2017-05-16T05:12:54.057Z,69.54
2017-05-16T05:14:03.373Z,69.83
2017-05-16T05:15:12.332Z,69.26
2017-05-16T05:16:21.466Z,69.35
2017-05-16T05:17:30.418Z,69.2
2017-05-16T05:18:39.373Z,69.01
2017-05-16T05:19:48.699Z,68.91
2017-05-16T05:20:57.660Z,68.81
2017-05-16T05:22:06.624Z,69.48
2017-05-16T05:23:15.635Z,69.29
2017-05-16T05:24:24.598Z,68.81
2017-05-16T05:25:33.913Z,68.14
2017-05-16T05:26:42.875Z,68.05
2017-05-16T05:27:51.839Z,68.81
2017-05-16T05:29:01.209Z,68.46
2017-05-16T05:30:10.219Z,68.66
2017-05-16T05:31:19.423Z,68.75
2017-05-16T05:32:28.385Z,69.04
2017-05-16T05:33:37.346Z,68.56
2017-05-16T05:34:46.842Z,68.75
2017-05-16T05:35:55.810Z,67.99
2017-05-16T05:37:05.108Z,68.18
2017-05-16T05:38:14.157Z,67.41
2017-05-16T05:39:23.136Z,67.22
2017-05-16T05:40:32.424Z,66.77
2017-05-16T05:41:42.529Z,66
2017-05-16T05:42:51.791Z,66
2017-05-16T05:44:01.173Z,64.95
2017-05-16T05:45:10.139Z,65.23
2017-05-16T05:46:19.100Z,65.14
2017-05-16T05:47:28.265Z,65.33
2017-05-16T05:48:37.522Z,64.47
2017-05-16T05:49:46.496Z,64.37
2017-05-16T05:50:55.457Z,64.66
2017-05-16T05:52:04.558Z,64.66
2017-05-16T05:53:13.609Z,64.47
2017-05-16T05:54:23.290Z,63.79
2017-05-16T05:55:32.246Z,62.45
2017-05-16T05:56:41.207Z,62.07
2017-05-16T05:57:50.172Z,61.78
2017-05-16T05:58:59.965Z,61.11
2017-05-16T06:00:11.971Z,60.72
2017-05-16T06:01:24.194Z,61.05
2017-05-16T06:02:35.795Z,60.72
2017-05-16T06:03:45.861Z,60.75
2017-05-16T06:04:54.825Z,61.14
2017-05-16T06:06:04.333Z,60.47
2017-05-16T06:07:13.302Z,60.28
2017-05-16T06:08:22.441Z,60.18
2017-05-16T06:09:31.405Z,59.7
2017-05-16T06:10:40.364Z,59.51
2017-05-16T06:11:49.836Z,60.38
2017-05-16T06:12:59.378Z,60.28
2017-05-16T06:14:08.380Z,60.57
2017-05-16T06:15:17.341Z,59.51
2017-05-16T06:16:26.304Z,59.7
2017-05-16T06:17:35.561Z,59.41
2017-05-16T06:18:44.523Z,58.94
2017-05-16T06:19:53.483Z,58.84
2017-05-16T06:21:02.452Z,58.84
2017-05-16T06:22:11.513Z,58.74
2017-05-16T06:23:21.137Z,58.36
2017-05-16T06:24:30.451Z,58.48
2017-05-16T06:25:40.611Z,58.1
2017-05-16T06:26:49.993Z,57.62
2017-05-16T06:27:58.951Z,57.14
2017-05-16T06:29:08.225Z,56.56
2017-05-16T06:30:17.208Z,56.27
2017-05-16T06:31:26.314Z,56.08
2017-05-16T06:32:35.377Z,55.73
2017-05-16T06:33:44.335Z,55.41
2017-05-16T06:34:53.733Z,54.83
2017-05-16T06:36:04.438Z,55.15
2017-05-16T06:37:13.889Z,54.57
2017-05-16T06:38:24.024Z,54.09
2017-05-16T06:39:33.619Z,54.09
2017-05-16T06:40:44.498Z,54.86
2017-05-16T06:41:55.025Z,54
2017-05-16T06:43:03.989Z,54.19
2017-05-16T06:44:12.961Z,54.19
2017-05-16T06:45:21.923Z,53.8
2017-05-16T06:46:31.186Z,53.42
2017-05-16T06:47:40.150Z,52.75
2017-05-16T06:48:49.115Z,51.88
2017-05-16T06:49:58.075Z,51.59
2017-05-16T06:51:07.042Z,51.31
2017-05-16T06:52:16.621Z,50.44
2017-05-16T06:53:25.665Z,49.96
2017-05-16T06:54:34.834Z,49.29
2017-05-16T06:55:43.801Z,49.67
2017-05-16T06:56:52.762Z,49.29
2017-05-16T06:58:02.074Z,48.81
2017-05-16T06:59:11.043Z,48.74
2017-05-16T07:00:20.005Z,48.83
2017-05-16T07:01:28.969Z,49.41
2017-05-16T07:02:37.932Z,49.12
2017-05-16T07:03:47.730Z,49.1
2017-05-16T07:04:56.696Z,49.1
2017-05-16T07:06:05.657Z,49.02
2017-05-16T07:07:14.625Z,48.93
2017-05-16T07:08:23.595Z,48.93
2017-05-16T07:09:32.859Z,48.54
2017-05-16T07:10:42.062Z,48.25
2017-05-16T07:11:51.347Z,48.25
2017-05-16T07:13:00.321Z,48.16
2017-05-16T07:14:09.281Z,48.16
2017-05-16T07:15:18.797Z,48.25
2017-05-16T07:16:28.627Z,48.35
2017-05-16T07:17:37.604Z,48.16
2017-05-16T07:18:46.743Z,48.07
2017-05-16T07:19:56.915Z,47.77
2017-05-16T07:21:07.277Z,47.87
2017-05-16T07:22:17.326Z,47.68
2017-05-16T07:23:27.083Z,47.68
2017-05-16T07:24:37.410Z,47.49
2017-05-16T07:25:47.611Z,47.68
2017-05-16T07:26:58.821Z,47.58
2017-05-16T07:28:08.365Z,47.58
2017-05-16T07:29:19.010Z,48.08
2017-05-16T07:30:28.259Z,47.97
2017-05-16T07:31:37.868Z,47.8
2017-05-16T07:32:49.305Z,47.8
2017-05-16T07:33:59.297Z,47.97
2017-05-16T07:35:08.589Z,48.45
2017-05-16T07:36:18.290Z,48.18
2017-05-16T07:37:28.238Z,47.89
2017-05-16T07:38:38.426Z,48.18
2017-05-16T07:39:48.678Z,48.18
2017-05-16T07:40:58.552Z,48.76
2017-05-16T07:42:08.453Z,48.95
2017-05-16T07:43:18.635Z,49.24
2017-05-16T07:44:29.189Z,49.43
2017-05-16T07:45:39.226Z,49.33
2017-05-16T07:46:49.918Z,48.66
2017-05-16T07:48:00.863Z,48.97
2017-05-16T07:49:10.985Z,48.97
2017-05-16T07:50:20.746Z,49.17
2017-05-16T07:51:29.722Z,49.36
2017-05-16T07:52:38.941Z,49.36
2017-05-16T07:53:48.370Z,49.17
2017-05-16T07:54:58.093Z,49.17
2017-05-16T07:56:09.619Z,49.17
2017-05-16T07:57:19.678Z,49.27
2017-05-16T07:58:28.815Z,48.69
2017-05-16T07:59:37.802Z,48.49
2017-05-16T08:00:47.153Z,47.72
2017-05-16T08:01:56.449Z,48.11
2017-05-16T08:03:05.545Z,47.72
2017-05-16T08:04:14.669Z,47.92
2017-05-16T08:05:23.869Z,48.21
2017-05-16T08:06:33.095Z,47.82
2017-05-16T08:07:42.394Z,47.82
2017-05-16T08:08:51.451Z,47.85
2017-05-16T08:10:00.515Z,47.56
2017-05-16T08:11:11.146Z,47.56
2017-05-16T08:12:20.246Z,47.85
2017-05-16T08:13:29.532Z,47.17
2017-05-16T08:14:39.049Z,46.59
2017-05-16T08:15:48.022Z,46.4
2017-05-16T08:16:57.148Z,46.31
2017-05-16T08:18:06.269Z,46.78
2017-05-16T08:19:15.615Z,46.69
2017-05-16T08:20:25.567Z,46.31
2017-05-16T08:21:34.858Z,46.59
2017-05-16T08:22:43.911Z,46.01
2017-05-16T08:23:52.973Z,45.92
2017-05-16T08:25:02.275Z,46.59
2017-05-16T08:26:11.501Z,46.4
2017-05-16T08:27:20.554Z,46.88
2017-05-16T08:28:29.516Z,46.78
2017-05-16T08:29:38.688Z,46.98
2017-05-16T08:30:47.958Z,46.78
2017-05-16T08:31:56.926Z,46.69
2017-05-16T08:33:05.891Z,47.08
2017-05-16T08:34:14.911Z,46.69
2017-05-16T08:35:23.876Z,46.69
2017-05-16T08:36:33.137Z,46.42
2017-05-16T08:37:47.739Z,46.04
2017-05-16T08:38:58.090Z,46.33
2017-05-16T08:40:07.268Z,46.04
2017-05-16T08:41:16.232Z,46.62
2017-05-16T08:42:25.599Z,46.14
2017-05-16T08:43:34.570Z,45.56
2017-05-16T08:44:43.535Z,46.59
2017-05-16T08:45:52.582Z,46.88
2017-05-16T08:47:01.545Z,46.91
2017-05-16T08:48:10.954Z,46.88
2017-05-16T08:49:20.141Z,46.98
2017-05-16T08:50:30.199Z,47.75
2017-05-16T08:51:41.369Z,47.17
2017-05-16T08:52:52.452Z,46.78
2017-05-16T08:54:03.572Z,47.56
2017-05-16T08:55:14.013Z,47.85
2017-05-16T08:56:24.355Z,49
2017-05-16T08:57:33.411Z,49.38
2017-05-16T08:58:42.391Z,49.77
2017-05-16T08:59:51.659Z,49.58
2017-05-16T09:01:00.620Z,49.58
2017-05-16T09:02:09.592Z,49.68
2017-05-16T09:03:18.555Z,50.15
2017-05-16T09:04:27.525Z,50.15
2017-05-16T09:05:36.790Z,49.68
2017-05-16T09:06:45.756Z,48.81
2017-05-16T09:07:54.731Z,50.15
2017-05-16T09:09:03.702Z,50.45
2017-05-16T09:10:12.668Z,50.42
2017-05-16T09:11:21.903Z,50.35
2017-05-16T09:12:31.187Z,50.99
2017-05-16T09:13:40.157Z,51.67
2017-05-16T09:14:49.122Z,51.67
2017-05-16T09:15:58.096Z,52.54
2017-05-16T09:17:07.379Z,52.73
2017-05-16T09:18:16.344Z,51.76
2017-05-16T09:19:25.312Z,52.06
2017-05-16T09:20:34.401Z,51.96
2017-05-16T09:21:43.427Z,52.34
2017-05-16T09:22:52.959Z,52.34
2017-05-16T09:24:01.926Z,52.15
2017-05-16T09:25:10.979Z,51.67
2017-05-16T09:26:19.995Z,51.96
2017-05-16T09:27:28.963Z,51.29
2017-05-16T09:28:38.230Z,50.9
2017-05-16T09:29:47.203Z,50.99
2017-05-16T09:30:56.259Z,50.99
2017-05-16T09:32:05.307Z,51.48
2017-05-16T09:33:14.360Z,51.09
2017-05-16T09:34:23.680Z,50.71
2017-05-16T09:35:32.737Z,51.29
2017-05-16T09:36:41.703Z,51.76
2017-05-16T09:37:50.761Z,51.96
2017-05-16T09:38:59.754Z,52.54
2017-05-16T09:40:09.198Z,52.54
2017-05-16T09:41:18.258Z,51.96
2017-05-16T09:42:27.225Z,52.54
2017-05-16T09:43:36.279Z,52.06
2017-05-16T09:44:45.779Z,51.86
2017-05-16T09:45:55.074Z,52.44
2017-05-16T09:47:04.509Z,52.63
2017-05-16T09:48:15.980Z,52.54
2017-05-16T09:49:26.070Z,51.96
2017-05-16T09:50:35.109Z,52.54
2017-05-16T09:51:44.409Z,51.76
2017-05-16T09:52:53.549Z,51.67
2017-05-16T09:54:02.510Z,51.19
2017-05-16T09:55:11.478Z,51.67
2017-05-16T09:56:20.526Z,52.12
2017-05-16T09:57:29.875Z,52.22
2017-05-16T09:58:38.841Z,52.42
2017-05-16T09:59:47.807Z,52.7
2017-05-16T10:00:56.783Z,53.38
2017-05-16T10:02:05.879Z,53.76
2017-05-16T10:03:15.092Z,53.86
2017-05-16T10:04:24.059Z,54.94
2017-05-16T10:05:33.118Z,55.68
2017-05-16T10:06:42.078Z,57.13
2017-05-16T10:07:51.052Z,57.42
2017-05-16T10:09:00.323Z,56.07
2017-05-16T10:10:09.611Z,55.78
2017-05-16T10:11:18.584Z,57.32
2017-05-16T10:12:27.548Z,57.13
2017-05-16T10:13:36.604Z,57.51
2017-05-16T10:14:45.867Z,56.07
2017-05-16T10:15:54.828Z,56.84
2017-05-16T10:17:03.793Z,58.09
2017-05-16T10:18:12.756Z,58.76
2017-05-16T10:19:21.806Z,58.47
2017-05-16T10:20:31.356Z,59.5
2017-05-16T10:21:40.319Z,59.44
2017-05-16T10:22:49.287Z,60.39
2017-05-16T10:23:58.250Z,60.21
2017-05-16T10:25:07.217Z,60.97
2017-05-16T10:26:17.230Z,59.92
2017-05-16T10:27:26.202Z,59.92
2017-05-16T10:28:35.268Z,60.39
2017-05-16T10:29:46.559Z,60.69
2017-05-16T10:30:55.547Z,60.75
2017-05-16T10:32:06.157Z,61.52
2017-05-16T10:33:15.811Z,61.36
2017-05-16T10:34:24.837Z,61.33
2017-05-16T10:37:17.020Z,60.85
2017-05-16T10:38:28.619Z,61.71
2017-05-16T10:39:43.977Z,62.29
2017-05-16T10:41:01.652Z,62.61
2017-05-16T10:42:17.374Z,63.38
2017-05-16T10:43:33.008Z,62.96
2017-05-16T10:44:45.822Z,63.06
2017-05-16T10:45:55.943Z,62.38
2017-05-16T10:47:05.012Z,62.29
2017-05-16T10:48:14.303Z,62.77
2017-05-16T10:49:23.935Z,62.77
2017-05-16T10:50:33.391Z,62.77
2017-05-16T10:51:43.105Z,63.25
2017-05-16T10:52:52.175Z,62.48
2017-05-16T10:54:01.463Z,63.25
2017-05-16T10:55:11.866Z,63.35
2017-05-16T10:56:21.989Z,63.64
2017-05-16T10:57:32.610Z,64.09
2017-05-16T10:58:44.261Z,63.89
2017-05-16T11:00:05.555Z,64.76
2017-05-16T11:01:18.876Z,65.27
2017-05-16T11:02:28.792Z,66.14
2017-05-16T11:03:41.296Z,66.04
2017-05-16T11:04:58.041Z,64.56
2017-05-16T11:06:10.530Z,65.23
2017-05-16T11:07:28.565Z,65.23
2017-05-16T11:08:41.009Z,65.14
2017-05-16T11:09:52.552Z,65.05
2017-05-16T11:11:04.430Z,64.85
2017-05-16T11:12:17.204Z,64.09
2017-05-16T11:13:26.175Z,63.99
2017-05-16T11:14:35.139Z,64.09
2017-05-16T11:15:44.403Z,63.99
2017-05-16T11:16:53.369Z,63.79
2017-05-16T11:18:02.331Z,63.99
2017-05-16T11:19:11.316Z,64.37
2017-05-16T11:20:20.454Z,64.28
2017-05-16T11:21:29.726Z,63.6
2017-05-16T11:22:38.690Z,63.89
2017-05-16T11:23:47.650Z,64.56
2017-05-16T11:24:56.613Z,65.43
2017-05-16T11:26:05.663Z,65.43
2017-05-16T11:27:14.976Z,66.1
2017-05-16T11:28:23.942Z,66.42
2017-05-16T11:29:32.905Z,66.14
2017-05-16T11:30:41.871Z,65.27
2017-05-16T11:31:50.837Z,65.66
2017-05-16T11:33:00.425Z,65.84
2017-05-16T11:34:09.394Z,65.17
2017-05-16T11:35:18.359Z,65.37
2017-05-16T11:36:27.335Z,65.27
2017-05-16T11:37:36.301Z,65.27
2017-05-16T11:38:45.654Z,64.98
2017-05-16T11:39:54.940Z,65.17
2017-05-16T11:41:03.992Z,65.46
2017-05-16T11:42:12.959Z,65.27
2017-05-16T11:43:22.015Z,65.27
2017-05-16T11:44:31.282Z,64.98
2017-05-16T11:45:40.297Z,65.37
2017-05-16T11:46:49.271Z,65.46
2017-05-16T11:47:58.243Z,65.75
2017-05-16T11:49:07.210Z,65.84
2017-05-16T11:50:16.471Z,65.94
2017-05-16T11:51:25.754Z,65.94
2017-05-16T11:52:34.714Z,67
2017-05-16T11:53:43.767Z,66.14
2017-05-16T11:54:52.731Z,65.46
2017-05-16T11:56:02.053Z,66.23
2017-05-16T11:57:11.015Z,66.14
2017-05-16T11:58:19.978Z,66.42
2017-05-16T11:59:29.034Z,66.52
2017-05-16T12:00:38.102Z,66.71
2017-05-16T12:01:47.327Z,65.56
2017-05-16T12:02:56.614Z,64.89
2017-05-16T12:04:05.899Z,66.14
2017-05-16T12:05:14.916Z,66.71
2017-05-16T12:06:23.881Z,66.52
2017-05-16T12:07:33.144Z,65.27
2017-05-16T12:08:42.111Z,67.19
2017-05-16T12:09:51.170Z,66.61
2017-05-16T12:11:00.140Z,66.49
2017-05-16T12:12:09.107Z,66.87
2017-05-16T12:13:18.459Z,67.74
2017-05-16T12:14:27.426Z,68.02
2017-05-16T12:15:36.480Z,66.58
2017-05-16T12:16:45.439Z,66.1
2017-05-16T12:17:54.403Z,65.72
2017-05-16T12:19:03.751Z,66
2017-05-16T12:20:12.713Z,65.81
2017-05-16T12:21:21.679Z,65.23
2017-05-16T12:22:30.731Z,65.78
2017-05-16T12:23:39.696Z,66.3
2017-05-16T12:24:48.958Z,67.32
2017-05-16T12:25:57.922Z,66.84
2017-05-16T12:27:06.978Z,67.51
2017-05-16T12:28:15.942Z,67.07
2017-05-16T12:29:24.913Z,67.51
2017-05-16T12:30:34.267Z,67.45
2017-05-16T12:31:43.230Z,66.46
2017-05-16T12:32:52.287Z,65.78
2017-05-16T12:34:01.336Z,66.36
2017-05-16T12:35:10.389Z,65.01
2017-05-16T12:36:19.701Z,65.3
2017-05-16T12:37:28.757Z,65.3
2017-05-16T12:38:37.716Z,67.83
2017-05-16T12:39:46.720Z,69.85
2017-05-16T12:40:55.742Z,69.46
2017-05-16T12:42:05.002Z,70.78
2017-05-16T12:43:13.960Z,74.08
2017-05-16T12:44:22.931Z,76.82
2017-05-16T12:45:32.221Z,77.88
2017-05-16T12:46:41.267Z,78.08
2017-05-16T12:47:50.612Z,80.28
2017-05-16T12:48:59.578Z,79.13
2017-05-16T12:50:08.629Z,77.21
2017-05-16T12:51:17.906Z,79.52
2017-05-16T12:52:26.868Z,80.96
2017-05-16T12:53:36.230Z,82.93
2017-05-16T12:54:45.197Z,83.6
2017-05-16T12:55:54.160Z,83.22
2017-05-16T12:57:03.453Z,84.08
2017-05-16T12:58:12.509Z,87.05
2017-05-16T12:59:21.821Z,89.07
2017-05-16T13:00:30.818Z,89.26
2017-05-16T13:01:39.784Z,91.19
2017-05-16T13:02:48.742Z,91.96
2017-05-16T13:03:57.771Z,92.24
2017-05-16T13:05:07.516Z,91.47
2017-05-16T13:06:16.480Z,93.2
2017-05-16T13:07:25.553Z,91.96
2017-05-16T13:08:34.551Z,92.43
2017-05-16T13:09:43.837Z,93.01
2017-05-16T13:10:53.046Z,93.06
2017-05-16T13:12:02.004Z,93.82
2017-05-16T13:13:10.967Z,94.59
2017-05-16T13:14:19.986Z,93.97
2017-05-16T13:15:28.961Z,93.2
2017-05-16T13:16:38.316Z,94.35
2017-05-16T13:17:47.282Z,92.63
2017-05-16T13:18:56.248Z,93.63
2017-05-16T13:20:05.215Z,90.08
2017-05-16T13:21:14.207Z,89.22
2017-05-16T13:22:23.472Z,92
2017-05-16T13:23:32.447Z,93.63
2017-05-16T13:24:41.509Z,93.92
2017-05-16T13:25:50.492Z,94.21
2017-05-16T13:26:59.452Z,92
2017-05-16T13:28:08.904Z,93.06
2017-05-16T13:29:18.049Z,91.91
2017-05-16T13:30:27.342Z,93.92
2017-05-16T13:31:36.305Z,95.46
2017-05-16T13:32:45.275Z,93.82
2017-05-16T13:33:54.544Z,94.69
2017-05-16T13:35:03.512Z,96.7
2017-05-16T13:36:12.475Z,93.92
2017-05-16T13:37:21.432Z,93.15
2017-05-16T13:38:30.485Z,93.73
2017-05-16T13:39:39.760Z,93.54
2017-05-16T13:40:48.717Z,92
2017-05-16T13:41:57.682Z,94.4
2017-05-16T13:43:06.653Z,94.49
2017-05-16T13:44:15.839Z,93.25
2017-05-16T13:45:25.462Z,95.55
2017-05-16T13:46:34.505Z,96.13
2017-05-16T13:47:43.558Z,95.84
2017-05-16T13:48:52.630Z,96.42
2017-05-16T13:50:01.595Z,97.19
2017-05-16T13:51:10.948Z,96.56
2017-05-16T13:52:19.917Z,96.47
2017-05-16T13:53:28.881Z,96.85
2017-05-16T13:54:37.850Z,94.83
2017-05-16T13:55:46.809Z,95.6
2017-05-16T13:56:56.078Z,93.3
2017-05-16T13:58:05.041Z,95.03
2017-05-16T13:59:14.094Z,94.07
2017-05-16T14:00:23.058Z,95.12
2017-05-16T14:01:32.106Z,95.79
2017-05-16T14:02:41.367Z,96.18
2017-05-16T14:03:50.353Z,95.5
2017-05-16T14:04:59.323Z,95.7
2017-05-16T14:06:08.288Z,95.03
2017-05-16T14:07:17.343Z,95.98
2017-05-16T14:08:26.556Z,96.56
2017-05-16T14:09:35.607Z,96.42
2017-05-16T14:10:44.576Z,96.51
2017-05-16T14:11:53.544Z,96.42
2017-05-16T14:13:02.507Z,96.8
2017-05-16T14:14:12.564Z,96.8
2017-05-16T14:15:24.836Z,95.36
2017-05-16T14:16:38.976Z,91.33
2017-05-16T14:17:50.192Z,93.73
2017-05-16T14:18:59.161Z,94.11
2017-05-16T14:20:08.427Z,92.57
2017-05-16T14:21:17.410Z,93.05
2017-05-16T14:22:26.409Z,94.31
2017-05-16T14:23:35.380Z,94.59
2017-05-16T14:24:44.346Z,96.13
2017-05-16T14:25:53.702Z,94.78
2017-05-16T14:27:02.671Z,94.01
2017-05-16T14:28:11.635Z,92.86
2017-05-16T14:29:20.601Z,92.77
2017-05-16T14:30:29.572Z,93.15
2017-05-16T14:31:38.830Z,93.73
2017-05-16T14:32:47.793Z,94.01
2017-05-16T14:33:56.841Z,95.17
2017-05-16T14:35:05.829Z,94.88
2017-05-16T14:36:14.795Z,93.49
2017-05-16T14:37:24.060Z,92.52
2017-05-16T14:38:33.020Z,92.62
2017-05-16T14:39:41.995Z,94.06
2017-05-16T14:40:50.965Z,92.05
2017-05-16T14:42:00.070Z,93.34
2017-05-16T14:43:09.331Z,89.45
2017-05-16T14:44:18.347Z,92.05
2017-05-16T14:45:27.305Z,93.25
2017-05-16T14:46:36.355Z,93.92
2017-05-16T14:47:45.638Z,94.54
2017-05-16T14:48:54.988Z,95.89
2017-05-16T14:50:03.947Z,92.81
2017-05-16T14:51:13.233Z,92.72
2017-05-16T14:52:22.200Z,91.95
2017-05-16T14:53:31.164Z,92.62
2017-05-16T14:54:40.424Z,92.24
2017-05-16T14:55:49.471Z,92.24
2017-05-16T14:56:58.844Z,93.39
2017-05-16T14:58:07.806Z,93.39
2017-05-16T14:59:16.770Z,92.91